sensor_id;sensor_type;location;lat;lon;timestamp;P1;durP1;ratioP1;P2;durP2;ratioP2
19026;SDS011;9646;52.034;5.554;2023-01-09T00:01:29;3.03;;;0.82;;
19026;SDS011;9646;52.034;5.554;2023-01-09T00:03:58;2.20;;;1.00;;
19026;SDS011;9646;52.034;5.554;2023-01-09T00:06:25;2.25;;;0.80;;
19026;SDS011;9646;52.034;5.554;2023-01-09T00:08:52;2.33;;;0.80;;
19026;SDS011;9646;52.034;5.554;2023-01-09T00:11:19;1.90;;;0.70;;
19026;SDS011;9646;52.034;5.554;2023-01-09T00:13:46;2.85;;;0.90;;
19026;SDS011;9646;52.034;5.554;2023-01-09T00:16:13;1.88;;;0.77;;
19026;SDS011;9646;52.034;5.554;2023-01-09T00:18:40;2.85;;;0.80;;
19026;SDS011;9646;52.034;5.554;2023-01-09T00:21:09;2.38;;;0.73;;
19026;SDS011;9646;52.034;5.554;2023-01-09T00:23:36;2.67;;;0.63;;
19026;SDS011;9646;52.034;5.554;2023-01-09T00:26:04;2.65;;;0.85;;
19026;SDS011;9646;52.034;5.554;2023-01-09T00:28:31;2.60;;;0.80;;
19026;SDS011;9646;52.034;5.554;2023-01-09T00:30:59;2.42;;;0.90;;
19026;SDS011;9646;52.034;5.554;2023-01-09T00:33:27;2.08;;;0.63;;
19026;SDS011;9646;52.034;5.554;2023-01-09T00:35:54;1.77;;;0.80;;
19026;SDS011;9646;52.034;5.554;2023-01-09T00:38:23;1.52;;;0.60;;
19026;SDS011;9646;52.034;5.554;2023-01-09T00:40:50;1.98;;;0.70;;
19026;SDS011;9646;52.034;5.554;2023-01-09T00:43:17;1.80;;;0.85;;
19026;SDS011;9646;52.034;5.554;2023-01-09T00:45:45;1.60;;;0.77;;
19026;SDS011;9646;52.034;5.554;2023-01-09T00:48:13;0.60;;;0.50;;
19026;SDS011;9646;52.034;5.554;2023-01-09T00:50:41;1.23;;;0.90;;
19026;SDS011;9646;52.034;5.554;2023-01-09T00:53:09;1.38;;;0.90;;
19026;SDS011;9646;52.034;5.554;2023-01-09T00:55:39;1.77;;;0.70;;
19026;SDS011;9646;52.034;5.554;2023-01-09T00:58:07;1.25;;;0.70;;
19026;SDS011;9646;52.034;5.554;2023-01-09T01:00:34;2.85;;;1.00;;
19026;SDS011;9646;52.034;5.554;2023-01-09T01:03:01;1.15;;;0.70;;
19026;SDS011;9646;52.034;5.554;2023-01-09T01:05:28;1.48;;;0.70;;
19026;SDS011;9646;52.034;5.554;2023-01-09T01:08:13;2.17;;;0.77;;
19026;SDS011;9646;52.034;5.554;2023-01-09T01:10:42;1.92;;;0.70;;
19026;SDS011;9646;52.034;5.554;2023-01-09T01:13:09;2.28;;;0.90;;
19026;SDS011;9646;52.034;5.554;2023-01-09T01:15:37;1.63;;;0.90;;
19026;SDS011;9646;52.034;5.554;2023-01-09T01:18:04;1.40;;;0.80;;
19026;SDS011;9646;52.034;5.554;2023-01-09T01:20:31;0.98;;;0.75;;
19026;SDS011;9646;52.034;5.554;2023-01-09T01:22:58;1.17;;;0.60;;
19026;SDS011;9646;52.034;5.554;2023-01-09T01:25:25;0.85;;;0.68;;
19026;SDS011;9646;52.034;5.554;2023-01-09T01:27:53;1.48;;;0.77;;
19026;SDS011;9646;52.034;5.554;2023-01-09T01:30:20;1.15;;;0.80;;
19026;SDS011;9646;52.034;5.554;2023-01-09T01:32:47;1.30;;;0.90;;
19026;SDS011;9646;52.034;5.554;2023-01-09T01:35:14;1.83;;;0.80;;
19026;SDS011;9646;52.034;5.554;2023-01-09T01:37:41;2.22;;;0.93;;
19026;SDS011;9646;52.034;5.554;2023-01-09T01:40:10;3.03;;;1.05;;
19026;SDS011;9646;52.034;5.554;2023-01-09T01:42:43;2.72;;;1.08;;
19026;SDS011;9646;52.034;5.554;2023-01-09T01:45:13;2.85;;;1.30;;
19026;SDS011;9646;52.034;5.554;2023-01-09T01:47:42;2.78;;;1.15;;
19026;SDS011;9646;52.034;5.554;2023-01-09T01:50:13;2.47;;;1.13;;
19026;SDS011;9646;52.034;5.554;2023-01-09T01:52:42;2.80;;;1.40;;
19026;SDS011;9646;52.034;5.554;2023-01-09T01:55:10;5.25;;;1.30;;
19026;SDS011;9646;52.034;5.554;2023-01-09T01:57:39;3.10;;;1.50;;
19026;SDS011;9646;52.034;5.554;2023-01-09T02:00:07;2.72;;;1.42;;
19026;SDS011;9646;52.034;5.554;2023-01-09T02:02:36;2.15;;;1.10;;
19026;SDS011;9646;52.034;5.554;2023-01-09T02:05:04;1.33;;;1.20;;
19026;SDS011;9646;52.034;5.554;2023-01-09T02:07:31;3.25;;;1.65;;
19026;SDS011;9646;52.034;5.554;2023-01-09T02:09:58;2.30;;;1.40;;
19026;SDS011;9646;52.034;5.554;2023-01-09T02:12:26;2.58;;;1.30;;
19026;SDS011;9646;52.034;5.554;2023-01-09T02:14:54;3.78;;;1.63;;
19026;SDS011;9646;52.034;5.554;2023-01-09T02:17:30;2.90;;;1.40;;
19026;SDS011;9646;52.034;5.554;2023-01-09T02:20:06;1.98;;;1.25;;
19026;SDS011;9646;52.034;5.554;2023-01-09T02:22:43;2.42;;;1.33;;
19026;SDS011;9646;52.034;5.554;2023-01-09T02:25:20;3.92;;;1.33;;
19026;SDS011;9646;52.034;5.554;2023-01-09T02:27:57;1.88;;;1.30;;
19026;SDS011;9646;52.034;5.554;2023-01-09T02:30:32;2.58;;;1.10;;
19026;SDS011;9646;52.034;5.554;2023-01-09T02:33:07;2.38;;;1.10;;
19026;SDS011;9646;52.034;5.554;2023-01-09T02:35:51;1.75;;;1.27;;
19026;SDS011;9646;52.034;5.554;2023-01-09T02:38:22;1.42;;;1.13;;
19026;SDS011;9646;52.034;5.554;2023-01-09T02:40:52;1.38;;;1.00;;
19026;SDS011;9646;52.034;5.554;2023-01-09T02:43:22;2.33;;;1.40;;
19026;SDS011;9646;52.034;5.554;2023-01-09T02:45:50;4.32;;;1.63;;
19026;SDS011;9646;52.034;5.554;2023-01-09T02:48:17;3.00;;;1.30;;
19026;SDS011;9646;52.034;5.554;2023-01-09T02:50:46;3.92;;;1.45;;
19026;SDS011;9646;52.034;5.554;2023-01-09T02:53:20;2.15;;;1.60;;
19026;SDS011;9646;52.034;5.554;2023-01-09T02:56:00;1.77;;;1.50;;
19026;SDS011;9646;52.034;5.554;2023-01-09T02:58:36;3.83;;;1.20;;
19026;SDS011;9646;52.034;5.554;2023-01-09T03:01:11;2.15;;;1.30;;
19026;SDS011;9646;52.034;5.554;2023-01-09T03:03:43;3.33;;;1.55;;
19026;SDS011;9646;52.034;5.554;2023-01-09T03:06:14;3.60;;;1.50;;
19026;SDS011;9646;52.034;5.554;2023-01-09T03:08:44;1.30;;;0.88;;
19026;SDS011;9646;52.034;5.554;2023-01-09T03:11:12;4.18;;;1.50;;
19026;SDS011;9646;52.034;5.554;2023-01-09T03:13:41;2.05;;;1.23;;
19026;SDS011;9646;52.034;5.554;2023-01-09T03:16:10;2.30;;;1.40;;
19026;SDS011;9646;52.034;5.554;2023-01-09T03:18:38;4.97;;;1.50;;
19026;SDS011;9646;52.034;5.554;2023-01-09T03:21:07;6.75;;;1.95;;
19026;SDS011;9646;52.034;5.554;2023-01-09T03:23:44;2.50;;;1.67;;
19026;SDS011;9646;52.034;5.554;2023-01-09T03:26:11;2.20;;;1.30;;
19026;SDS011;9646;52.034;5.554;2023-01-09T03:28:38;2.33;;;1.08;;
19026;SDS011;9646;52.034;5.554;2023-01-09T03:31:05;2.22;;;1.20;;
19026;SDS011;9646;52.034;5.554;2023-01-09T03:33:33;7.05;;;1.80;;
19026;SDS011;9646;52.034;5.554;2023-01-09T03:36:00;2.17;;;1.20;;
19026;SDS011;9646;52.034;5.554;2023-01-09T03:38:28;5.20;;;1.05;;
19026;SDS011;9646;52.034;5.554;2023-01-09T03:40:55;1.75;;;1.05;;
19026;SDS011;9646;52.034;5.554;2023-01-09T03:43:22;1.85;;;1.05;;
19026;SDS011;9646;52.034;5.554;2023-01-09T03:45:49;2.97;;;1.45;;
19026;SDS011;9646;52.034;5.554;2023-01-09T03:48:16;1.60;;;1.02;;
19026;SDS011;9646;52.034;5.554;2023-01-09T03:50:46;3.45;;;1.40;;
19026;SDS011;9646;52.034;5.554;2023-01-09T03:53:13;2.78;;;1.30;;
19026;SDS011;9646;52.034;5.554;2023-01-09T03:55:42;1.63;;;1.00;;
19026;SDS011;9646;52.034;5.554;2023-01-09T03:58:09;2.33;;;1.10;;
19026;SDS011;9646;52.034;5.554;2023-01-09T04:00:36;3.70;;;1.17;;
19026;SDS011;9646;52.034;5.554;2023-01-09T04:03:04;2.25;;;1.33;;
19026;SDS011;9646;52.034;5.554;2023-01-09T04:05:31;1.50;;;0.98;;
19026;SDS011;9646;52.034;5.554;2023-01-09T04:07:59;2.70;;;1.13;;
19026;SDS011;9646;52.034;5.554;2023-01-09T04:10:27;1.95;;;1.20;;
19026;SDS011;9646;52.034;5.554;2023-01-09T04:12:54;3.08;;;1.10;;
19026;SDS011;9646;52.034;5.554;2023-01-09T04:15:21;2.92;;;1.23;;
19026;SDS011;9646;52.034;5.554;2023-01-09T04:17:48;2.92;;;1.10;;
19026;SDS011;9646;52.034;5.554;2023-01-09T04:20:15;3.08;;;1.20;;
19026;SDS011;9646;52.034;5.554;2023-01-09T04:22:42;2.58;;;1.20;;
19026;SDS011;9646;52.034;5.554;2023-01-09T04:25:11;2.25;;;0.77;;
19026;SDS011;9646;52.034;5.554;2023-01-09T04:27:39;4.10;;;1.25;;
19026;SDS011;9646;52.034;5.554;2023-01-09T04:30:07;3.55;;;0.80;;
19026;SDS011;9646;52.034;5.554;2023-01-09T04:32:34;2.22;;;1.27;;
19026;SDS011;9646;52.034;5.554;2023-01-09T04:35:01;2.10;;;0.80;;
19026;SDS011;9646;52.034;5.554;2023-01-09T04:37:28;3.83;;;1.20;;
19026;SDS011;9646;52.034;5.554;2023-01-09T04:39:55;4.40;;;1.10;;
19026;SDS011;9646;52.034;5.554;2023-01-09T04:42:23;5.35;;;1.50;;
19026;SDS011;9646;52.034;5.554;2023-01-09T04:44:50;3.63;;;1.30;;
19026;SDS011;9646;52.034;5.554;2023-01-09T04:47:18;3.38;;;1.08;;
19026;SDS011;9646;52.034;5.554;2023-01-09T04:49:45;2.35;;;1.15;;
19026;SDS011;9646;52.034;5.554;2023-01-09T04:52:12;3.80;;;1.33;;
19026;SDS011;9646;52.034;5.554;2023-01-09T04:54:39;3.17;;;1.02;;
19026;SDS011;9646;52.034;5.554;2023-01-09T04:57:06;3.92;;;0.98;;
19026;SDS011;9646;52.034;5.554;2023-01-09T04:59:34;2.65;;;0.90;;
19026;SDS011;9646;52.034;5.554;2023-01-09T05:02:01;3.22;;;1.08;;
19026;SDS011;9646;52.034;5.554;2023-01-09T05:04:28;1.40;;;0.70;;
19026;SDS011;9646;52.034;5.554;2023-01-09T05:06:56;2.40;;;1.02;;
19026;SDS011;9646;52.034;5.554;2023-01-09T05:09:23;3.80;;;0.93;;
19026;SDS011;9646;52.034;5.554;2023-01-09T05:11:50;5.38;;;1.17;;
19026;SDS011;9646;52.034;5.554;2023-01-09T05:14:16;4.85;;;1.27;;
19026;SDS011;9646;52.034;5.554;2023-01-09T05:16:45;1.27;;;0.70;;
19026;SDS011;9646;52.034;5.554;2023-01-09T05:19:12;3.03;;;1.30;;
19026;SDS011;9646;52.034;5.554;2023-01-09T05:21:39;2.75;;;0.85;;
19026;SDS011;9646;52.034;5.554;2023-01-09T05:24:06;2.50;;;0.70;;
19026;SDS011;9646;52.034;5.554;2023-01-09T05:26:33;4.47;;;1.77;;
19026;SDS011;9646;52.034;5.554;2023-01-09T05:29:00;3.00;;;0.90;;
19026;SDS011;9646;52.034;5.554;2023-01-09T05:31:27;4.55;;;1.40;;
19026;SDS011;9646;52.034;5.554;2023-01-09T05:33:56;3.72;;;0.90;;
19026;SDS011;9646;52.034;5.554;2023-01-09T05:36:24;2.75;;;1.00;;
19026;SDS011;9646;52.034;5.554;2023-01-09T05:38:52;3.90;;;1.17;;
19026;SDS011;9646;52.034;5.554;2023-01-09T05:41:21;1.73;;;0.82;;
19026;SDS011;9646;52.034;5.554;2023-01-09T05:43:49;3.28;;;1.00;;
19026;SDS011;9646;52.034;5.554;2023-01-09T05:46:16;1.90;;;1.05;;
19026;SDS011;9646;52.034;5.554;2023-01-09T05:48:43;2.08;;;0.80;;
19026;SDS011;9646;52.034;5.554;2023-01-09T05:51:12;3.25;;;1.10;;
19026;SDS011;9646;52.034;5.554;2023-01-09T05:53:39;3.65;;;0.90;;
19026;SDS011;9646;52.034;5.554;2023-01-09T05:56:06;1.63;;;1.00;;
19026;SDS011;9646;52.034;5.554;2023-01-09T05:58:33;5.85;;;1.35;;
19026;SDS011;9646;52.034;5.554;2023-01-09T06:01:00;6.20;;;1.30;;
19026;SDS011;9646;52.034;5.554;2023-01-09T06:03:27;3.13;;;1.27;;
19026;SDS011;9646;52.034;5.554;2023-01-09T06:05:54;3.33;;;1.10;;
19026;SDS011;9646;52.034;5.554;2023-01-09T06:08:22;3.80;;;1.00;;
19026;SDS011;9646;52.034;5.554;2023-01-09T06:10:49;4.57;;;1.30;;
19026;SDS011;9646;52.034;5.554;2023-01-09T06:13:16;4.95;;;1.30;;
19026;SDS011;9646;52.034;5.554;2023-01-09T06:15:45;4.53;;;1.15;;
19026;SDS011;9646;52.034;5.554;2023-01-09T06:18:12;5.30;;;1.20;;
19026;SDS011;9646;52.034;5.554;2023-01-09T06:20:39;4.50;;;1.30;;
19026;SDS011;9646;52.034;5.554;2023-01-09T06:23:06;3.20;;;1.13;;
19026;SDS011;9646;52.034;5.554;2023-01-09T06:25:34;3.85;;;1.20;;
19026;SDS011;9646;52.034;5.554;2023-01-09T06:28:02;6.53;;;2.53;;
19026;SDS011;9646;52.034;5.554;2023-01-09T06:30:29;5.90;;;2.97;;
19026;SDS011;9646;52.034;5.554;2023-01-09T06:32:56;5.45;;;2.30;;
19026;SDS011;9646;52.034;5.554;2023-01-09T06:35:23;3.08;;;1.30;;
19026;SDS011;9646;52.034;5.554;2023-01-09T06:37:50;6.93;;;2.20;;
19026;SDS011;9646;52.034;5.554;2023-01-09T06:40:17;5.25;;;2.10;;
19026;SDS011;9646;52.034;5.554;2023-01-09T06:42:46;13.02;;;3.30;;
19026;SDS011;9646;52.034;5.554;2023-01-09T06:45:14;9.55;;;2.67;;
19026;SDS011;9646;52.034;5.554;2023-01-09T06:47:41;9.00;;;2.65;;
19026;SDS011;9646;52.034;5.554;2023-01-09T06:50:09;9.07;;;2.50;;
19026;SDS011;9646;52.034;5.554;2023-01-09T06:52:36;8.50;;;2.45;;
19026;SDS011;9646;52.034;5.554;2023-01-09T06:55:04;7.88;;;2.10;;
19026;SDS011;9646;52.034;5.554;2023-01-09T06:57:31;6.43;;;1.98;;
19026;SDS011;9646;52.034;5.554;2023-01-09T06:59:59;7.35;;;1.92;;
19026;SDS011;9646;52.034;5.554;2023-01-09T07:02:26;9.50;;;2.08;;
19026;SDS011;9646;52.034;5.554;2023-01-09T07:04:54;6.28;;;1.77;;
19026;SDS011;9646;52.034;5.554;2023-01-09T07:07:21;6.78;;;1.60;;
19026;SDS011;9646;52.034;5.554;2023-01-09T07:09:48;7.50;;;1.98;;
19026;SDS011;9646;52.034;5.554;2023-01-09T07:12:15;4.85;;;1.77;;
19026;SDS011;9646;52.034;5.554;2023-01-09T07:14:42;7.22;;;1.92;;
19026;SDS011;9646;52.034;5.554;2023-01-09T07:17:11;5.70;;;1.80;;
19026;SDS011;9646;52.034;5.554;2023-01-09T07:19:38;6.00;;;1.73;;
19026;SDS011;9646;52.034;5.554;2023-01-09T07:22:05;7.32;;;1.60;;
19026;SDS011;9646;52.034;5.554;2023-01-09T07:24:33;3.47;;;1.77;;
19026;SDS011;9646;52.034;5.554;2023-01-09T07:27:00;5.90;;;1.70;;
19026;SDS011;9646;52.034;5.554;2023-01-09T07:29:27;7.97;;;3.15;;
19026;SDS011;9646;52.034;5.554;2023-01-09T07:31:54;8.13;;;2.00;;
19026;SDS011;9646;52.034;5.554;2023-01-09T07:34:22;5.10;;;1.98;;
19026;SDS011;9646;52.034;5.554;2023-01-09T07:36:49;5.55;;;2.20;;
19026;SDS011;9646;52.034;5.554;2023-01-09T07:39:16;6.40;;;1.95;;
19026;SDS011;9646;52.034;5.554;2023-01-09T07:41:43;5.38;;;2.75;;
19026;SDS011;9646;52.034;5.554;2023-01-09T07:44:10;4.55;;;2.00;;
19026;SDS011;9646;52.034;5.554;2023-01-09T07:46:38;8.70;;;2.65;;
19026;SDS011;9646;52.034;5.554;2023-01-09T07:49:05;7.88;;;2.38;;
19026;SDS011;9646;52.034;5.554;2023-01-09T07:51:34;7.45;;;2.08;;
19026;SDS011;9646;52.034;5.554;2023-01-09T07:54:03;3.38;;;1.45;;
19026;SDS011;9646;52.034;5.554;2023-01-09T07:56:30;5.53;;;2.03;;
19026;SDS011;9646;52.034;5.554;2023-01-09T07:58:57;2.75;;;1.42;;
19026;SDS011;9646;52.034;5.554;2023-01-09T08:01:24;4.10;;;1.38;;
19026;SDS011;9646;52.034;5.554;2023-01-09T08:03:51;3.50;;;1.00;;
19026;SDS011;9646;52.034;5.554;2023-01-09T08:06:18;3.55;;;1.20;;
19026;SDS011;9646;52.034;5.554;2023-01-09T08:08:46;2.78;;;0.90;;
19026;SDS011;9646;52.034;5.554;2023-01-09T08:11:14;1.25;;;0.60;;
19026;SDS011;9646;52.034;5.554;2023-01-09T08:13:41;5.55;;;1.08;;
19026;SDS011;9646;52.034;5.554;2023-01-09T08:16:08;1.75;;;0.70;;
19026;SDS011;9646;52.034;5.554;2023-01-09T08:18:35;1.35;;;0.88;;
19026;SDS011;9646;52.034;5.554;2023-01-09T08:21:02;3.58;;;1.20;;
19026;SDS011;9646;52.034;5.554;2023-01-09T08:23:29;2.95;;;1.30;;
19026;SDS011;9646;52.034;5.554;2023-01-09T08:25:57;1.98;;;1.08;;
19026;SDS011;9646;52.034;5.554;2023-01-09T08:28:24;4.30;;;0.98;;
19026;SDS011;9646;52.034;5.554;2023-01-09T08:30:51;1.67;;;0.85;;
19026;SDS011;9646;52.034;5.554;2023-01-09T08:33:18;2.50;;;1.10;;
19026;SDS011;9646;52.034;5.554;2023-01-09T08:35:45;2.88;;;1.13;;
19026;SDS011;9646;52.034;5.554;2023-01-09T08:38:12;2.38;;;1.08;;
19026;SDS011;9646;52.034;5.554;2023-01-09T08:40:39;1.88;;;0.90;;
19026;SDS011;9646;52.034;5.554;2023-01-09T08:43:08;2.20;;;1.02;;
19026;SDS011;9646;52.034;5.554;2023-01-09T08:45:53;3.15;;;0.90;;
19026;SDS011;9646;52.034;5.554;2023-01-09T08:48:40;2.65;;;1.20;;
19026;SDS011;9646;52.034;5.554;2023-01-09T08:51:07;2.00;;;0.95;;
19026;SDS011;9646;52.034;5.554;2023-01-09T08:53:34;1.88;;;0.82;;
19026;SDS011;9646;52.034;5.554;2023-01-09T08:56:02;2.35;;;0.77;;
19026;SDS011;9646;52.034;5.554;2023-01-09T08:58:31;2.67;;;0.85;;
19026;SDS011;9646;52.034;5.554;2023-01-09T09:00:58;2.58;;;1.10;;
19026;SDS011;9646;52.034;5.554;2023-01-09T09:03:25;1.88;;;1.02;;
19026;SDS011;9646;52.034;5.554;2023-01-09T09:05:52;1.88;;;1.20;;
19026;SDS011;9646;52.034;5.554;2023-01-09T09:08:19;4.57;;;1.25;;
19026;SDS011;9646;52.034;5.554;2023-01-09T09:10:47;2.85;;;1.13;;
19026;SDS011;9646;52.034;5.554;2023-01-09T09:13:14;1.52;;;0.93;;
19026;SDS011;9646;52.034;5.554;2023-01-09T09:15:42;2.28;;;0.90;;
19026;SDS011;9646;52.034;5.554;2023-01-09T09:18:09;3.25;;;1.17;;
19026;SDS011;9646;52.034;5.554;2023-01-09T09:20:37;3.60;;;1.15;;
19026;SDS011;9646;52.034;5.554;2023-01-09T09:23:04;3.53;;;1.20;;
19026;SDS011;9646;52.034;5.554;2023-01-09T09:25:32;2.28;;;1.27;;
19026;SDS011;9646;52.034;5.554;2023-01-09T09:27:59;3.20;;;1.10;;
19026;SDS011;9646;52.034;5.554;2023-01-09T09:30:26;4.10;;;1.45;;
19026;SDS011;9646;52.034;5.554;2023-01-09T09:32:55;2.92;;;1.30;;
19026;SDS011;9646;52.034;5.554;2023-01-09T09:35:22;5.78;;;1.73;;
19026;SDS011;9646;52.034;5.554;2023-01-09T09:37:52;1.95;;;1.20;;
19026;SDS011;9646;52.034;5.554;2023-01-09T09:40:21;4.28;;;1.60;;
19026;SDS011;9646;52.034;5.554;2023-01-09T09:43:01;4.95;;;1.50;;
19026;SDS011;9646;52.034;5.554;2023-01-09T09:45:49;2.95;;;1.10;;
19026;SDS011;9646;52.034;5.554;2023-01-09T09:48:29;4.13;;;1.23;;
19026;SDS011;9646;52.034;5.554;2023-01-09T09:51:16;6.78;;;1.50;;
19026;SDS011;9646;52.034;5.554;2023-01-09T09:53:50;3.72;;;1.40;;
19026;SDS011;9646;52.034;5.554;2023-01-09T09:56:20;3.33;;;1.52;;
19026;SDS011;9646;52.034;5.554;2023-01-09T09:58:48;3.28;;;1.08;;
19026;SDS011;9646;52.034;5.554;2023-01-09T10:01:17;4.72;;;1.25;;
19026;SDS011;9646;52.034;5.554;2023-01-09T10:03:46;3.72;;;1.20;;
19026;SDS011;9646;52.034;5.554;2023-01-09T10:06:15;3.80;;;1.33;;
19026;SDS011;9646;52.034;5.554;2023-01-09T10:08:47;3.65;;;1.50;;
19026;SDS011;9646;52.034;5.554;2023-01-09T10:11:16;5.50;;;1.50;;
19026;SDS011;9646;52.034;5.554;2023-01-09T10:13:44;7.18;;;2.20;;
19026;SDS011;9646;52.034;5.554;2023-01-09T10:16:32;2.97;;;1.25;;
19026;SDS011;9646;52.034;5.554;2023-01-09T10:19:08;4.50;;;2.05;;
19026;SDS011;9646;52.034;5.554;2023-01-09T10:21:37;5.45;;;1.70;;
19026;SDS011;9646;52.034;5.554;2023-01-09T10:24:13;5.28;;;1.38;;
19026;SDS011;9646;52.034;5.554;2023-01-09T10:26:45;5.82;;;1.40;;
19026;SDS011;9646;52.034;5.554;2023-01-09T10:29:18;4.50;;;1.35;;
19026;SDS011;9646;52.034;5.554;2023-01-09T10:31:52;6.50;;;1.35;;
19026;SDS011;9646;52.034;5.554;2023-01-09T10:34:26;5.80;;;1.55;;
19026;SDS011;9646;52.034;5.554;2023-01-09T10:37:01;5.50;;;1.90;;
19026;SDS011;9646;52.034;5.554;2023-01-09T10:39:33;11.27;;;2.08;;
19026;SDS011;9646;52.034;5.554;2023-01-09T10:42:03;6.70;;;1.45;;
19026;SDS011;9646;52.034;5.554;2023-01-09T10:44:35;8.00;;;2.15;;
19026;SDS011;9646;52.034;5.554;2023-01-09T10:47:06;7.28;;;1.55;;
19026;SDS011;9646;52.034;5.554;2023-01-09T10:49:37;7.32;;;1.67;;
19026;SDS011;9646;52.034;5.554;2023-01-09T10:52:08;7.03;;;1.23;;
19026;SDS011;9646;52.034;5.554;2023-01-09T10:54:37;6.13;;;2.13;;
19026;SDS011;9646;52.034;5.554;2023-01-09T10:57:09;7.00;;;2.15;;
19026;SDS011;9646;52.034;5.554;2023-01-09T10:59:38;6.60;;;2.00;;
19026;SDS011;9646;52.034;5.554;2023-01-09T11:02:08;7.35;;;2.05;;
19026;SDS011;9646;52.034;5.554;2023-01-09T11:04:42;5.95;;;1.40;;
19026;SDS011;9646;52.034;5.554;2023-01-09T11:07:11;5.72;;;1.77;;
19026;SDS011;9646;52.034;5.554;2023-01-09T11:12:23;6.15;;;1.48;;
19026;SDS011;9646;52.034;5.554;2023-01-09T11:14:50;7.10;;;1.40;;
19026;SDS011;9646;52.034;5.554;2023-01-09T11:17:18;3.75;;;1.17;;
19026;SDS011;9646;52.034;5.554;2023-01-09T11:20:00;3.53;;;1.58;;
19026;SDS011;9646;52.034;5.554;2023-01-09T11:22:28;5.18;;;1.48;;
19026;SDS011;9646;52.034;5.554;2023-01-09T11:24:58;4.60;;;1.48;;
19026;SDS011;9646;52.034;5.554;2023-01-09T11:27:25;8.23;;;1.40;;
19026;SDS011;9646;52.034;5.554;2023-01-09T11:32:50;4.80;;;2.03;;
19026;SDS011;9646;52.034;5.554;2023-01-09T11:35:20;7.53;;;1.77;;
19026;SDS011;9646;52.034;5.554;2023-01-09T11:37:49;6.38;;;1.88;;
19026;SDS011;9646;52.034;5.554;2023-01-09T11:40:23;7.43;;;2.28;;
19026;SDS011;9646;52.034;5.554;2023-01-09T11:42:59;5.10;;;1.50;;
19026;SDS011;9646;52.034;5.554;2023-01-09T11:45:28;8.30;;;1.48;;
19026;SDS011;9646;52.034;5.554;2023-01-09T11:47:56;5.75;;;1.65;;
19026;SDS011;9646;52.034;5.554;2023-01-09T11:50:26;7.38;;;2.13;;
19026;SDS011;9646;52.034;5.554;2023-01-09T11:53:06;3.53;;;1.83;;
19026;SDS011;9646;52.034;5.554;2023-01-09T11:55:37;7.68;;;2.10;;
19026;SDS011;9646;52.034;5.554;2023-01-09T11:58:04;5.38;;;2.00;;
19026;SDS011;9646;52.034;5.554;2023-01-09T12:00:34;7.95;;;2.22;;
19026;SDS011;9646;52.034;5.554;2023-01-09T12:03:06;8.40;;;1.73;;
19026;SDS011;9646;52.034;5.554;2023-01-09T12:05:38;6.78;;;1.83;;
19026;SDS011;9646;52.034;5.554;2023-01-09T12:08:27;7.25;;;1.73;;
19026;SDS011;9646;52.034;5.554;2023-01-09T12:11:06;8.20;;;1.92;;
19026;SDS011;9646;52.034;5.554;2023-01-09T12:13:41;5.50;;;1.67;;
19026;SDS011;9646;52.034;5.554;2023-01-09T12:16:12;6.47;;;1.80;;
19026;SDS011;9646;52.034;5.554;2023-01-09T12:18:51;6.72;;;1.90;;
19026;SDS011;9646;52.034;5.554;2023-01-09T12:21:25;10.57;;;1.90;;
19026;SDS011;9646;52.034;5.554;2023-01-09T12:23:59;9.00;;;1.92;;
19026;SDS011;9646;52.034;5.554;2023-01-09T12:26:30;10.15;;;2.22;;
19026;SDS011;9646;52.034;5.554;2023-01-09T12:29:08;4.55;;;1.83;;
19026;SDS011;9646;52.034;5.554;2023-01-09T12:31:40;13.85;;;2.65;;
19026;SDS011;9646;52.034;5.554;2023-01-09T12:34:15;7.60;;;1.70;;
19026;SDS011;9646;52.034;5.554;2023-01-09T12:36:50;6.78;;;2.17;;
19026;SDS011;9646;52.034;5.554;2023-01-09T12:39:22;9.65;;;2.13;;
19026;SDS011;9646;52.034;5.554;2023-01-09T12:41:57;9.60;;;2.60;;
19026;SDS011;9646;52.034;5.554;2023-01-09T12:44:28;5.53;;;2.03;;
19026;SDS011;9646;52.034;5.554;2023-01-09T12:47:02;9.93;;;1.90;;
19026;SDS011;9646;52.034;5.554;2023-01-09T12:49:32;11.63;;;2.78;;
19026;SDS011;9646;52.034;5.554;2023-01-09T12:52:08;8.95;;;2.03;;
19026;SDS011;9646;52.034;5.554;2023-01-09T12:54:38;8.13;;;1.98;;
19026;SDS011;9646;52.034;5.554;2023-01-09T12:57:09;10.77;;;2.15;;
19026;SDS011;9646;52.034;5.554;2023-01-09T12:59:39;11.05;;;2.17;;
19026;SDS011;9646;52.034;5.554;2023-01-09T13:02:11;7.75;;;2.20;;
19026;SDS011;9646;52.034;5.554;2023-01-09T13:04:40;7.70;;;2.10;;
19026;SDS011;9646;52.034;5.554;2023-01-09T13:07:16;8.20;;;2.50;;
19026;SDS011;9646;52.034;5.554;2023-01-09T13:09:45;9.45;;;2.58;;
19026;SDS011;9646;52.034;5.554;2023-01-09T13:12:13;12.02;;;2.38;;
19026;SDS011;9646;52.034;5.554;2023-01-09T13:14:45;9.70;;;2.13;;
19026;SDS011;9646;52.034;5.554;2023-01-09T13:17:13;10.07;;;2.55;;
19026;SDS011;9646;52.034;5.554;2023-01-09T13:19:41;9.65;;;2.70;;
19026;SDS011;9646;52.034;5.554;2023-01-09T13:22:11;10.75;;;1.90;;
19026;SDS011;9646;52.034;5.554;2023-01-09T13:24:50;16.00;;;2.88;;
19026;SDS011;9646;52.034;5.554;2023-01-09T13:27:20;10.88;;;2.83;;
19026;SDS011;9646;52.034;5.554;2023-01-09T13:29:49;13.75;;;2.45;;
19026;SDS011;9646;52.034;5.554;2023-01-09T13:32:21;8.23;;;2.42;;
19026;SDS011;9646;52.034;5.554;2023-01-09T13:34:50;9.95;;;2.92;;
19026;SDS011;9646;52.034;5.554;2023-01-09T13:37:20;10.98;;;2.40;;
19026;SDS011;9646;52.034;5.554;2023-01-09T13:39:53;6.78;;;2.13;;
19026;SDS011;9646;52.034;5.554;2023-01-09T13:42:21;8.60;;;2.20;;
19026;SDS011;9646;52.034;5.554;2023-01-09T13:45:08;9.50;;;2.15;;
19026;SDS011;9646;52.034;5.554;2023-01-09T13:47:36;5.68;;;1.80;;
19026;SDS011;9646;52.034;5.554;2023-01-09T13:50:23;11.95;;;3.03;;
19026;SDS011;9646;52.034;5.554;2023-01-09T13:52:52;9.60;;;2.15;;
19026;SDS011;9646;52.034;5.554;2023-01-09T13:55:29;12.23;;;2.30;;
19026;SDS011;9646;52.034;5.554;2023-01-09T14:00:47;9.68;;;2.20;;
19026;SDS011;9646;52.034;5.554;2023-01-09T14:03:15;7.35;;;1.88;;
19026;SDS011;9646;52.034;5.554;2023-01-09T14:08:30;9.85;;;2.38;;
19026;SDS011;9646;52.034;5.554;2023-01-09T14:10:59;9.18;;;2.03;;
19026;SDS011;9646;52.034;5.554;2023-01-09T14:13:27;6.93;;;1.85;;
19026;SDS011;9646;52.034;5.554;2023-01-09T14:16:00;10.23;;;2.63;;
19026;SDS011;9646;52.034;5.554;2023-01-09T14:18:29;9.43;;;2.08;;
19026;SDS011;9646;52.034;5.554;2023-01-09T14:20:57;8.50;;;2.00;;
19026;SDS011;9646;52.034;5.554;2023-01-09T14:23:26;5.47;;;1.75;;
19026;SDS011;9646;52.034;5.554;2023-01-09T14:25:54;3.58;;;1.38;;
19026;SDS011;9646;52.034;5.554;2023-01-09T14:28:22;6.25;;;1.80;;
19026;SDS011;9646;52.034;5.554;2023-01-09T14:31:07;8.55;;;1.98;;
19026;SDS011;9646;52.034;5.554;2023-01-09T14:33:34;7.00;;;1.95;;
19026;SDS011;9646;52.034;5.554;2023-01-09T14:36:03;11.07;;;2.30;;
19026;SDS011;9646;52.034;5.554;2023-01-09T14:38:31;11.45;;;2.05;;
19026;SDS011;9646;52.034;5.554;2023-01-09T14:41:02;6.32;;;1.95;;
19026;SDS011;9646;52.034;5.554;2023-01-09T14:43:37;8.95;;;2.42;;
19026;SDS011;9646;52.034;5.554;2023-01-09T14:46:07;10.52;;;2.40;;
19026;SDS011;9646;52.034;5.554;2023-01-09T14:48:37;8.98;;;1.90;;
19026;SDS011;9646;52.034;5.554;2023-01-09T14:51:07;5.57;;;2.05;;
19026;SDS011;9646;52.034;5.554;2023-01-09T14:53:36;6.97;;;2.05;;
19026;SDS011;9646;52.034;5.554;2023-01-09T14:56:05;8.38;;;1.90;;
19026;SDS011;9646;52.034;5.554;2023-01-09T14:58:47;7.78;;;1.70;;
19026;SDS011;9646;52.034;5.554;2023-01-09T15:01:17;11.50;;;2.45;;
19026;SDS011;9646;52.034;5.554;2023-01-09T15:03:47;6.57;;;2.30;;
19026;SDS011;9646;52.034;5.554;2023-01-09T15:06:16;10.18;;;1.95;;
19026;SDS011;9646;52.034;5.554;2023-01-09T15:08:44;10.73;;;2.45;;
19026;SDS011;9646;52.034;5.554;2023-01-09T15:11:13;9.23;;;2.40;;
19026;SDS011;9646;52.034;5.554;2023-01-09T15:13:43;12.55;;;2.53;;
19026;SDS011;9646;52.034;5.554;2023-01-09T15:16:12;11.77;;;2.40;;
19026;SDS011;9646;52.034;5.554;2023-01-09T15:18:42;10.82;;;3.42;;
19026;SDS011;9646;52.034;5.554;2023-01-09T15:21:13;10.38;;;2.42;;
19026;SDS011;9646;52.034;5.554;2023-01-09T15:23:42;10.20;;;2.63;;
19026;SDS011;9646;52.034;5.554;2023-01-09T15:26:21;13.27;;;2.63;;